Time;durP1;ratioP1;P1;durP2;ratioP2;P2;SDS_P1;SDS_P2;PMS_P1;PMS_P2;Temp;Humidity;BMP_temperature;BMP_pressure;BME280_temperature;BME280_humidity;BME280_pressure;Samples;Min_cycle;Max_cycle;Signal;HPM_P1;HPM_P2
2021/07/09 00:01:24;;;;;;;0.70;0.70;;;18.10;82.30;;;;;;5083790;28;20044;-79
2021/07/09 00:03:50;;;;;;;0.60;0.60;;;18.10;82.40;;;;;;5114699;28;20036;-79
2021/07/09 00:06:19;;;;;;;1.10;0.93;;;18.10;82.30;;;;;;5096295;28;20164;-80
2021/07/09 00:08:45;;;;;;;1.63;0.82;;;18.10;82.30;;;;;;5079780;28;20046;-80
2021/07/09 00:11:10;;;;;;;0.80;0.70;;;18.10;82.30;;;;;;5079332;28;20048;-80
2021/07/09 00:13:36;;;;;;;1.20;1.00;;;18.10;82.40;;;;;;5094731;28;20067;-79
2021/07/09 00:16:02;;;;;;;1.58;1.20;;;18.00;82.40;;;;;;5079410;28;20071;-79
2021/07/09 00:18:28;;;;;;;1.23;1.00;;;18.00;82.40;;;;;;5079410;28;20071;-79
2021/07/09 00:20:54;;;;;;;1.55;1.38;;;17.90;82.40;;;;;;5115006;28;20047;-79
2021/07/09 00:23:19;;;;;;;1.42;1.33;;;17.90;82.50;;;;;;5096221;28;20038;-78
2021/07/09 00:25:45;;;;;;;1.25;1.10;;;17.90;82.50;;;;;;5114856;28;20050;-79
2021/07/09 00:28:11;;;;;;;1.80;1.25;;;17.90;82.50;;;;;;5096078;28;20048;-79
2021/07/09 00:30:36;;;;;;;1.65;1.20;;;17.90;82.50;;;;;;5096724;28;20040;-78
2021/07/09 00:33:02;;;;;;;1.52;1.38;;;17.90;82.60;;;;;;5096118;28;20044;-79
2021/07/09 00:35:27;;;;;;;1.42;1.20;;;17.80;82.60;;;;;;5096474;28;20101;-79
2021/07/09 00:37:53;;;;;;;1.13;0.90;;;17.80;82.70;;;;;;5095937;28;20130;-78
2021/07/09 00:40:19;;;;;;;2.20;1.35;;;17.80;82.80;;;;;;5079034;28;20070;-79
2021/07/09 00:42:44;;;;;;;1.52;1.38;;;17.80;82.90;;;;;;5096074;28;20442;-79
2021/07/09 00:45:11;;;;;;;1.48;1.13;;;17.80;82.90;;;;;;5095778;28;20040;-78
2021/07/09 00:47:37;;;;;;;1.02;0.93;;;17.80;82.90;;;;;;5114184;28;20071;-79
2021/07/09 00:50:04;;;;;;;2.10;1.40;;;17.70;82.90;;;;;;5078847;28;20051;-79
2021/07/09 00:52:30;;;;;;;1.67;1.23;;;17.70;82.90;;;;;;5095706;28;20043;-78
2021/07/09 00:54:55;;;;;;;2.03;1.17;;;17.70;82.90;;;;;;5094325;28;20131;-79
2021/07/09 00:57:21;;;;;;;1.65;1.20;;;17.60;83.00;;;;;;5114357;28;20040;-78
2021/07/09 00:59:47;;;;;;;2.40;1.10;;;17.60;83.00;;;;;;5113838;28;20039;-78
2021/07/09 01:02:13;;;;;;;2.95;1.70;;;17.60;83.10;;;;;;5095187;28;20059;-78
2021/07/09 01:04:38;;;;;;;1.60;1.48;;;17.50;83.10;;;;;;5093476;28;20043;-78
2021/07/09 01:07:04;;;;;;;2.17;1.48;;;17.40;83.10;;;;;;5094740;28;20409;-78
2021/07/09 01:09:31;;;;;;;1.85;1.30;;;17.40;83.20;;;;;;5078547;28;20088;-78
2021/07/09 01:11:57;;;;;;;1.60;1.30;;;17.40;83.30;;;;;;5078490;28;20443;-78
2021/07/09 01:14:23;;;;;;;1.52;1.17;;;17.30;83.30;;;;;;5078598;28;20477;-78
2021/07/09 01:16:50;;;;;;;2.28;1.42;;;17.30;83.40;;;;;;5078404;28;20040;-78
2021/07/09 01:19:17;;;;;;;2.28;1.17;;;17.20;83.50;;;;;;5094001;28;20131;-78
2021/07/09 01:21:44;;;;;;;1.77;1.33;;;17.30;83.60;;;;;;5078152;28;20031;-78
2021/07/09 01:24:11;;;;;;;1.67;1.20;;;17.20;84.20;;;;;;5095484;28;20071;-78
2021/07/09 01:26:38;;;;;;;1.98;1.40;;;17.10;83.60;;;;;;5095224;28;20052;-80
2021/07/09 01:29:05;;;;;;;2.58;1.25;;;17.20;83.70;;;;;;5113235;28;20127;-78
2021/07/09 01:31:31;;;;;;;2.40;1.40;;;17.20;83.70;;;;;;5094242;28;20381;-78
2021/07/09 01:33:57;;;;;;;2.03;1.30;;;17.10;83.70;;;;;;5078620;28;20089;-78
2021/07/09 01:36:23;;;;;;;1.60;1.20;;;17.10;83.70;;;;;;5095722;28;20044;-78
2021/07/09 01:38:49;;;;;;;1.75;1.27;;;17.10;83.70;;;;;;5113605;28;20035;-78
2021/07/09 01:41:16;;;;;;;1.92;1.30;;;17.10;83.70;;;;;;5093263;28;20036;-78
2021/07/09 01:43:42;;;;;;;2.38;1.65;;;17.00;83.60;;;;;;5095167;28;20035;-78
2021/07/09 01:46:07;;;;;;;1.70;1.20;;;17.00;83.60;;;;;;5113629;28;20043;-78
2021/07/09 01:48:33;;;;;;;1.48;1.00;;;17.00;83.60;;;;;;5113357;28;20035;-78
2021/07/09 01:50:59;;;;;;;1.10;1.00;;;17.00;83.70;;;;;;5092795;28;20134;-78
2021/07/09 01:53:24;;;;;;;1.95;1.40;;;17.00;83.60;;;;;;5077220;28;20055;-78
2021/07/09 01:55:50;;;;;;;2.17;1.25;;;17.00;83.60;;;;;;5093414;28;20047;-78
2021/07/09 01:58:16;;;;;;;1.90;1.30;;;17.00;83.70;;;;;;5092903;28;20044;-78
2021/07/09 02:00:42;;;;;;;2.20;1.40;;;16.90;83.60;;;;;;5094484;28;20039;-78
2021/07/09 02:03:07;;;;;;;1.77;1.15;;;16.90;83.70;;;;;;5112782;28;20431;-78
2021/07/09 02:05:33;;;;;;;1.48;1.08;;;16.90;83.80;;;;;;5094511;28;20050;-78
2021/07/09 02:07:59;;;;;;;1.30;1.10;;;16.90;83.80;;;;;;5094400;28;20092;-78
2021/07/09 02:10:28;;;;;;;1.60;1.33;;;16.90;83.80;;;;;;5094521;28;20044;-78
2021/07/09 02:12:55;;;;;;;1.77;1.20;;;16.80;83.80;;;;;;5093246;28;20490;-78
2021/07/09 02:15:25;;;;;;;1.50;1.00;;;16.80;83.80;;;;;;5112759;28;20118;-78
2021/07/09 02:17:51;;;;;;;1.45;1.20;;;16.80;83.80;;;;;;5094846;28;20035;-78
2021/07/09 02:20:19;;;;;;;1.27;0.98;;;16.80;83.80;;;;;;5077572;28;20534;-78
2021/07/09 02:22:46;;;;;;;1.58;1.20;;;16.80;83.90;;;;;;5112799;28;20047;-78
2021/07/09 02:25:13;;;;;;;1.52;1.00;;;16.80;83.90;;;;;;5112946;28;20040;-79
2021/07/09 02:27:40;;;;;;;1.77;1.15;;;16.80;83.90;;;;;;5112512;28;20538;-78
2021/07/09 02:30:09;;;;;;;1.75;1.27;;;16.80;83.90;;;;;;5112678;28;20071;-78
2021/07/09 02:32:35;;;;;;;1.40;1.00;;;16.80;83.90;;;;;;5075646;28;20081;-78
2021/07/09 02:35:03;;;;;;;0.93;0.82;;;16.80;83.90;;;;;;5094085;28;20123;-78
2021/07/09 02:37:28;;;;;;;1.45;0.98;;;16.70;83.90;;;;;;5094132;28;20056;-78
2021/07/09 02:39:54;;;;;;;2.25;1.02;;;16.70;83.90;;;;;;5094005;28;20045;-78
2021/07/09 02:42:19;;;;;;;1.48;1.13;;;16.70;83.90;;;;;;5112185;28;20114;-78
2021/07/09 02:44:45;;;;;;;1.58;1.02;;;16.70;84.00;;;;;;5112475;28;20116;-78
2021/07/09 02:47:11;;;;;;;0.98;0.88;;;16.70;84.00;;;;;;5092837;28;20544;-78
2021/07/09 02:49:37;;;;;;;1.50;1.20;;;16.60;84.00;;;;;;5094007;28;20035;-78
2021/07/09 02:52:03;;;;;;;1.40;1.08;;;16.60;84.00;;;;;;5094206;28;20040;-78
2021/07/09 02:54:28;;;;;;;1.23;0.95;;;16.60;84.10;;;;;;5093883;28;20384;-78
2021/07/09 02:56:54;;;;;;;2.17;1.35;;;16.60;84.20;;;;;;5112081;28;20553;-78
2021/07/09 02:59:19;;;;;;;1.75;1.13;;;16.50;84.20;;;;;;5112121;28;20122;-78
2021/07/09 03:01:45;;;;;;;1.95;1.20;;;16.50;84.20;;;;;;5093904;28;20101;-78
2021/07/09 03:04:12;;;;;;;1.38;1.00;;;16.50;84.20;;;;;;5094017;28;20477;-78
2021/07/09 03:06:38;;;;;;;0.95;0.90;;;16.50;84.20;;;;;;5060347;28;20097;-78
2021/07/09 03:09:06;;;;;;;0.93;0.77;;;16.50;84.20;;;;;;5112026;28;20039;-78
2021/07/09 03:11:32;;;;;;;1.40;1.17;;;16.60;84.20;;;;;;5077130;28;20048;-78
2021/07/09 03:13:58;;;;;;;1.40;1.00;;;16.60;84.10;;;;;;5076885;28;20067;-78
2021/07/09 03:16:24;;;;;;;1.38;0.90;;;16.60;84.10;;;;;;5093864;28;20043;-78
2021/07/09 03:18:49;;;;;;;1.15;1.02;;;16.60;84.00;;;;;;5076385;28;20040;-78
2021/07/09 03:21:15;;;;;;;1.52;1.10;;;16.70;84.00;;;;;;5094149;28;20032;-78
2021/07/09 03:23:40;;;;;;;1.90;1.20;;;16.60;84.00;;;;;;5093563;28;20366;-78
2021/07/09 03:26:06;;;;;;;1.52;1.05;;;16.50;84.00;;;;;;5096138;28;20382;-78
2021/07/09 03:28:31;;;;;;;1.30;1.00;;;16.50;84.10;;;;;;5080066;28;20397;-78
2021/07/09 03:30:57;;;;;;;1.20;1.00;;;16.50;84.10;;;;;;5078672;28;20044;-79
2021/07/09 03:33:23;;;;;;;2.05;1.23;;;16.50;84.20;;;;;;5115552;28;20126;-78
2021/07/09 03:35:48;;;;;;;1.42;1.00;;;16.50;84.30;;;;;;5115496;28;20458;-78
2021/07/09 03:38:14;;;;;;;2.20;1.30;;;16.40;84.30;;;;;;5115362;28;20046;-78
2021/07/09 03:40:40;;;;;;;1.20;1.00;;;16.40;84.40;;;;;;5096682;28;20485;-78
2021/07/09 03:43:06;;;;;;;1.85;1.30;;;16.30;84.40;;;;;;5096710;28;20331;-78
2021/07/09 03:45:32;;;;;;;1.20;1.10;;;16.30;84.40;;;;;;5063100;28;20095;-78
2021/07/09 03:47:58;;;;;;;0.95;0.85;;;16.20;84.50;;;;;;5115343;28;20039;-79
2021/07/09 03:50:24;;;;;;;1.80;1.35;;;16.20;84.70;;;;;;5097235;28;20435;-78
2021/07/09 03:52:49;;;;;;;1.02;0.88;;;16.10;84.80;;;;;;5114779;28;20118;-78
2021/07/09 03:55:15;;;;;;;1.17;0.93;;;16.10;84.90;;;;;;5096695;28;20397;-78
2021/07/09 03:57:41;;;;;;;1.08;0.93;;;16.10;84.90;;;;;;5110646;28;20070;-78
2021/07/09 04:00:09;;;;;;;1.40;1.05;;;16.10;84.90;;;;;;5096861;28;20104;-78
2021/07/09 04:02:35;;;;;;;1.25;0.98;;;16.10;84.90;;;;;;5096757;28;20092;-78
2021/07/09 04:05:00;;;;;;;1.10;0.88;;;16.10;84.90;;;;;;5097217;28;20043;-78
2021/07/09 04:07:26;;;;;;;1.10;0.90;;;16.10;84.90;;;;;;5096799;28;20100;-78
2021/07/09 04:09:52;;;;;;;2.28;1.33;;;16.00;84.80;;;;;;5115266;28;20130;-78
2021/07/09 04:12:17;;;;;;;1.15;1.05;;;16.10;84.90;;;;;;5114731;28;20104;-78
2021/07/09 04:14:43;;;;;;;2.10;1.10;;;16.10;84.90;;;;;;5079823;28;20042;-78
2021/07/09 04:17:08;;;;;;;1.77;1.00;;;16.10;84.90;;;;;;5114592;28;20542;-79
2021/07/09 04:19:34;;;;;;;2.55;1.25;;;16.00;84.90;;;;;;5114527;28;20039;-79
2021/07/09 04:22:00;;;;;;;2.53;1.58;;;16.00;84.90;;;;;;5061125;28;20035;-77
2021/07/09 04:24:25;;;;;;;1.23;1.00;;;16.00;84.90;;;;;;5114888;28;20067;-78
2021/07/09 04:26:51;;;;;;;1.27;1.08;;;16.10;85.00;;;;;;5079474;28;20040;-78
2021/07/09 04:29:17;;;;;;;2.20;1.20;;;16.00;84.90;;;;;;5114520;28;20075;-78
2021/07/09 04:31:42;;;;;;;1.83;1.20;;;16.00;84.90;;;;;;5114488;28;20039;-78
2021/07/09 04:34:08;;;;;;;0.98;0.88;;;16.00;84.80;;;;;;5096411;28;20057;-78
2021/07/09 04:36:33;;;;;;;1.30;1.10;;;16.00;84.70;;;;;;5114362;28;20067;-78
2021/07/09 04:38:59;;;;;;;1.95;1.35;;;16.00;84.70;;;;;;5079123;28;20464;-78
2021/07/09 04:41:25;;;;;;;1.77;1.17;;;16.00;84.70;;;;;;5114230;28;20089;-78
2021/07/09 04:43:50;;;;;;;1.27;1.02;;;16.10;84.70;;;;;;5096186;28;20085;-78
2021/07/09 04:46:16;;;;;;;1.63;1.17;;;16.10;84.70;;;;;;5095947;28;20044;-78
2021/07/09 04:48:42;;;;;;;2.05;1.30;;;16.10;84.70;;;;;;5114363;28;20032;-78
2021/07/09 04:51:07;;;;;;;4.15;1.58;;;16.20;84.70;;;;;;5078363;28;20135;-78
2021/07/09 04:53:33;;;;;;;2.08;1.10;;;16.20;84.60;;;;;;5079357;28;20039;-78
2021/07/09 04:55:58;;;;;;;1.77;1.23;;;16.20;84.50;;;;;;5095749;28;20100;-78
2021/07/09 04:58:24;;;;;;;2.47;1.60;;;16.20;84.40;;;;;;5078732;28;20044;-78
2021/07/09 05:00:50;;;;;;;1.88;1.30;;;16.20;84.40;;;;;;5113957;28;20036;-78
2021/07/09 05:03:15;;;;;;;1.77;1.20;;;16.20;84.40;;;;;;5114392;28;20038;-79
2021/07/09 05:05:41;;;;;;;2.67;1.70;;;16.20;84.50;;;;;;5114434;28;20039;-79
2021/07/09 05:08:07;;;;;;;1.50;1.13;;;16.20;84.50;;;;;;5078862;28;20048;-79
2021/07/09 05:10:33;;;;;;;1.35;1.10;;;16.20;84.40;;;;;;5095802;28;20397;-80
2021/07/09 05:12:59;;;;;;;2.22;1.20;;;16.30;84.40;;;;;;5078425;28;20501;-79
2021/07/09 05:15:25;;;;;;;1.70;1.05;;;16.40;84.40;;;;;;5095493;28;20116;-80
2021/07/09 05:17:50;;;;;;;1.98;1.15;;;16.40;84.20;;;;;;5095618;28;20048;-79
2021/07/09 05:20:16;;;;;;;1.60;0.90;;;16.50;84.10;;;;;;5095604;28;20035;-80
2021/07/09 05:22:42;;;;;;;1.92;1.30;;;16.60;84.00;;;;;;5078674;28;20459;-79
2021/07/09 05:25:09;;;;;;;2.28;1.50;;;16.60;83.90;;;;;;5113563;28;20042;-78
2021/07/09 05:27:35;;;;;;;2.13;1.40;;;16.70;83.80;;;;;;5095484;28;20046;-79
2021/07/09 05:30:01;;;;;;;2.30;1.35;;;16.80;83.70;;;;;;5061195;28;20051;-78
2021/07/09 05:32:28;;;;;;;1.25;0.98;;;16.90;83.60;;;;;;5078623;28;20039;-79
2021/07/09 05:34:55;;;;;;;1.98;1.35;;;17.00;83.40;;;;;;5113442;28;20047;-77
2021/07/09 05:37:22;;;;;;;1.38;1.00;;;17.00;83.40;;;;;;5091292;28;20044;-76
2021/07/09 05:39:47;;;;;;;1.40;1.02;;;17.10;83.40;;;;;;5094885;28;20036;-77
2021/07/09 05:42:14;;;;;;;1.35;1.02;;;17.10;83.20;;;;;;5095778;28;20035;-79
2021/07/09 05:44:41;;;;;;;1.88;1.13;;;17.20;83.20;;;;;;5095119;28;20036;-77
2021/07/09 05:47:07;;;;;;;1.50;1.10;;;17.30;83.10;;;;;;5077965;28;20393;-77
2021/07/09 05:49:33;;;;;;;1.63;1.10;;;17.20;82.90;;;;;;5113243;28;20043;-77
2021/07/09 05:51:58;;;;;;;1.60;1.23;;;17.30;82.90;;;;;;5095014;28;20501;-76
2021/07/09 05:54:24;;;;;;;2.35;1.50;;;17.30;82.90;;;;;;5076402;28;20048;-77
2021/07/09 05:56:49;;;;;;;1.23;1.10;;;17.40;82.80;;;;;;5061307;28;20039;-77
2021/07/09 05:59:15;;;;;;;1.38;1.10;;;17.40;82.70;;;;;;5094539;28;20120;-79
2021/07/09 06:01:41;;;;;;;1.88;1.30;;;17.60;82.80;;;;;;5077871;28;20050;-77
2021/07/09 06:04:06;;;;;;;1.60;1.38;;;17.50;82.50;;;;;;5112683;28;20113;-75
2021/07/09 06:06:32;;;;;;;1.63;1.15;;;17.50;82.40;;;;;;5093794;28;20085;-76
2021/07/09 06:08:57;;;;;;;1.17;1.02;;;17.60;82.20;;;;;;5077898;28;20044;-78
2021/07/09 06:11:25;;;;;;;1.85;1.30;;;17.60;82.00;;;;;;5092571;28;20097;-75
2021/07/09 06:13:52;;;;;;;1.13;1.02;;;17.70;81.80;;;;;;5095202;28;20412;-78
2021/07/09 06:16:18;;;;;;;1.42;1.20;;;17.70;81.70;;;;;;5095010;28;20047;-75
2021/07/09 06:18:43;;;;;;;1.10;1.00;;;17.80;81.50;;;;;;5076196;28;20397;-79
2021/07/09 06:21:09;;;;;;;1.70;1.20;;;17.80;81.40;;;;;;5077578;28;20040;-76
2021/07/09 06:23:35;;;;;;;0.93;0.90;;;17.70;81.40;;;;;;5112555;28;20036;-76
2021/07/09 06:26:00;;;;;;;1.65;1.20;;;17.80;81.30;;;;;;5077560;28;20075;-75
2021/07/09 06:28:26;;;;;;;1.85;1.13;;;17.90;81.10;;;;;;5112991;28;20080;-76
2021/07/09 06:30:52;;;;;;;1.45;1.00;;;17.90;80.80;;;;;;5077599;28;20039;-78
2021/07/09 06:33:17;;;;;;;1.20;1.10;;;18.00;80.70;;;;;;5077236;28;20457;-78
2021/07/09 06:35:43;;;;;;;0.82;0.75;;;18.10;80.50;;;;;;5094213;28;20039;-78
2021/07/09 06:38:09;;;;;;;1.17;1.00;;;18.20;80.40;;;;;;5077284;28;20398;-78
2021/07/09 06:40:34;;;;;;;1.30;1.00;;;18.30;80.10;;;;;;5077383;28;20538;-79
2021/07/09 06:43:00;;;;;;;1.27;1.00;;;18.40;79.90;;;;;;5075614;28;20070;-79
2021/07/09 06:45:26;;;;;;;0.70;0.70;;;18.50;79.80;;;;;;5094565;28;20047;-77
2021/07/09 06:47:52;;;;;;;1.65;0.90;;;18.50;79.50;;;;;;5094282;28;20039;-79
2021/07/09 06:50:18;;;;;;;1.65;0.90;;;18.70;79.50;;;;;;5077347;28;20118;-79
2021/07/09 06:52:44;;;;;;;0.90;0.80;;;18.70;79.30;;;;;;5112531;28;20131;-78
2021/07/09 06:55:12;;;;;;;1.10;1.00;;;18.90;79.20;;;;;;5112262;28;20036;-79
2021/07/09 06:57:38;;;;;;;0.80;0.80;;;18.90;78.80;;;;;;5094042;28;20044;-79
2021/07/09 07:00:06;;;;;;;0.70;0.70;;;19.00;78.60;;;;;;5076692;28;20032;-80
2021/07/09 07:02:32;;;;;;;1.77;1.10;;;19.10;78.40;;;;;;5095898;28;20047;-80
2021/07/09 07:04:59;;;;;;;1.10;0.90;;;19.10;78.20;;;;;;5115780;28;20051;-79
2021/07/09 07:07:24;;;;;;;1.17;1.00;;;19.30;78.00;;;;;;5081205;28;20062;-80
2021/07/09 07:09:50;;;;;;;1.52;1.00;;;19.40;77.80;;;;;;5079475;28;20040;-80
2021/07/09 07:12:15;;;;;;;1.75;1.27;;;19.50;77.50;;;;;;5097462;28;20036;-80
2021/07/09 07:14:41;;;;;;;1.05;0.95;;;19.70;77.20;;;;;;5097238;28;20048;-80
2021/07/09 07:17:08;;;;;;;1.23;1.05;;;19.80;77.00;;;;;;5116020;28;20044;-78
2021/07/09 07:19:33;;;;;;;1.13;1.02;;;19.90;76.80;;;;;;5080398;28;20092;-78
2021/07/09 07:22:02;;;;;;;0.93;0.90;;;20.10;76.60;;;;;;5097236;28;20118;-78
2021/07/09 07:24:28;;;;;;;1.58;1.20;;;20.20;76.40;;;;;;5081562;28;20068;-78
2021/07/09 07:26:53;;;;;;;1.77;1.30;;;20.20;76.30;;;;;;5097010;28;20097;-79
2021/07/09 07:29:19;;;;;;;1.50;1.23;;;20.40;76.30;;;;;;5080068;28;20431;-78
2021/07/09 07:31:44;;;;;;;2.00;1.20;;;20.50;76.00;;;;;;5115580;28;20050;-78
2021/07/09 07:34:10;;;;;;;1.40;1.10;;;20.60;76.50;;;;;;5115262;28;20400;-79
2021/07/09 07:36:36;;;;;;;2.15;1.50;;;20.70;75.80;;;;;;5097076;28;20043;-79
2021/07/09 07:39:02;;;;;;;1.38;1.02;;;20.80;75.60;;;;;;5080043;28;20520;-78
2021/07/09 07:41:27;;;;;;;2.00;1.35;;;20.90;75.50;;;;;;5115608;28;20085;-78
2021/07/09 07:43:53;;;;;;;1.67;1.20;;;21.00;75.50;;;;;;5115785;28;20032;-80
2021/07/09 07:46:18;;;;;;;1.50;1.25;;;21.00;75.50;;;;;;5115064;28;20560;-80
2021/07/09 07:48:44;;;;;;;1.05;1.00;;;21.10;75.60;;;;;;5096343;28;20548;-83
2021/07/09 07:51:10;;;;;;;1.40;1.20;;;21.20;75.70;;;;;;5063142;28;20081;-83
2021/07/09 07:53:36;;;;;;;1.05;0.95;;;21.20;75.60;;;;;;5079957;28;20085;-82
2021/07/09 07:56:04;;;;;;;1.23;1.00;;;21.40;75.60;;;;;;5079686;28;20036;-83
2021/07/09 07:58:30;;;;;;;0.93;0.90;;;21.60;75.40;;;;;;5079657;28;20389;-82
2021/07/09 08:00:55;;;;;;;1.08;0.98;;;21.70;75.10;;;;;;5114810;28;20035;-82
2021/07/09 08:03:21;;;;;;;0.82;0.82;;;21.80;74.90;;;;;;5094763;28;20044;-81
2021/07/09 08:05:47;;;;;;;1.77;1.30;;;22.00;74.70;;;;;;5096075;28;20044;-80
2021/07/09 08:08:12;;;;;;;1.02;0.90;;;22.00;74.40;;;;;;5095018;28;20044;-82
2021/07/09 08:10:38;;;;;;;1.00;0.90;;;22.20;74.30;;;;;;5077914;28;20051;-81
2021/07/09 08:13:03;;;;;;;1.00;0.90;;;22.20;74.10;;;;;;5062773;28;20101;-81
2021/07/09 08:15:29;;;;;;;1.10;1.00;;;22.30;74.20;;;;;;5062818;28;20071;-80
2021/07/09 08:17:55;;;;;;;1.30;1.05;;;22.20;74.20;;;;;;5079523;28;20126;-83
2021/07/09 08:20:20;;;;;;;1.13;1.00;;;22.20;74.00;;;;;;5096387;28;20100;-79
2021/07/09 08:22:46;;;;;;;1.30;1.10;;;22.30;74.10;;;;;;5079604;28;20047;-82
2021/07/09 08:25:12;;;;;;;1.20;1.10;;;22.40;74.10;;;;;;5114649;28;20031;-82
2021/07/09 08:27:39;;;;;;;1.20;0.80;;;22.30;74.10;;;;;;5114627;28;20043;-81
2021/07/09 08:30:07;;;;;;;0.90;0.80;;;22.40;74.00;;;;;;5115136;28;20054;-82
2021/07/09 08:32:33;;;;;;;1.58;1.20;;;22.60;73.70;;;;;;5114808;28;20043;-82
2021/07/09 08:35:19;;;;;;;1.38;1.20;;;22.70;73.40;;;;;;5087438;28;20095;-85
2021/07/09 08:38:01;;;;;;;1.98;1.20;;;22.70;73.10;;;;;;5017320;28;20148;-87
2021/07/09 08:40:50;;;;;;;1.48;1.23;;;22.80;73.00;;;;;;4975641;28;20058;-85
2021/07/09 08:43:16;;;;;;;1.02;0.88;;;22.80;72.90;;;;;;4898489;29;20092;-81
2021/07/09 08:45:41;;;;;;;1.17;1.08;;;22.70;72.90;;;;;;4882653;29;20044;-80
2021/07/09 08:48:09;;;;;;;1.80;1.23;;;22.80;72.80;;;;;;4880494;29;20073;-81
2021/07/09 08:50:35;;;;;;;1.15;1.05;;;22.90;72.70;;;;;;4904248;29;20045;-81
2021/07/09 08:53:01;;;;;;;1.27;1.17;;;23.00;72.60;;;;;;4880817;29;20510;-81
2021/07/09 08:55:26;;;;;;;1.35;1.10;;;23.00;72.50;;;;;;4904000;29;20052;-80
2021/07/09 08:57:52;;;;;;;0.80;0.80;;;23.10;72.40;;;;;;4885165;29;20092;-81
2021/07/09 09:00:38;;;;;;;1.88;1.42;;;23.20;72.40;;;;;;4908114;29;20040;-80
2021/07/09 09:03:24;;;;;;;1.90;1.08;;;23.30;71.80;;;;;;4935852;29;20051;-83
2021/07/09 09:05:51;;;;;;;1.88;1.40;;;23.30;71.80;;;;;;4945368;29;20035;-84
2021/07/09 09:08:21;;;;;;;2.13;1.30;;;23.30;71.80;;;;;;4963903;28;20058;-88
2021/07/09 09:10:48;;;;;;;;;;;23.20;71.60;;;;;;5000664;28;20060;-83
2021/07/09 09:13:24;;;;;;;1.40;1.00;;;23.30;72.60;;;;;;5044253;28;19982;-81
2021/07/09 09:16:11;;;;;;;1.60;1.25;;;23.30;71.90;;;;;;5071920;28;20143;-83
2021/07/09 09:18:51;;;;;;;1.35;1.25;;;23.30;71.80;;;;;;5012969;28;20034;-82
2021/07/09 09:21:27;;;;;;;3.03;1.63;;;23.40;71.70;;;;;;4952200;28;20123;-82
2021/07/09 09:23:55;;;;;;;2.63;1.60;;;23.40;71.30;;;;;;4915927;29;20527;-84
2021/07/09 09:26:39;;;;;;;2.08;1.65;;;23.40;71.20;;;;;;4915341;29;20170;-83
2021/07/09 09:29:05;;;;;;;1.40;1.30;;;23.40;71.60;;;;;;4916290;29;20575;-84
2021/07/09 09:31:35;;;;;;;2.30;1.65;;;23.40;71.60;;;;;;4916466;29;20048;-84
2021/07/09 09:34:03;;;;;;;1.90;1.38;;;23.50;71.30;;;;;;4915962;29;20143;-81
2021/07/09 09:36:28;;;;;;;2.72;1.58;;;23.60;71.30;;;;;;4917717;29;20459;-83
2021/07/09 09:38:56;;;;;;;3.03;1.90;;;23.60;71.10;;;;;;4915077;29;20055;-83
2021/07/09 09:41:21;;;;;;;2.25;1.40;;;23.50;71.10;;;;;;4918105;29;20081;-83
2021/07/09 09:44:16;;;;;;;3.63;1.88;;;23.50;71.30;;;;;;4916867;29;20044;-86
2021/07/09 09:47:15;;;;;;;2.42;1.65;;;23.60;71.00;;;;;;4891385;29;20044;-83
2021/07/09 09:49:43;;;;;;;2.05;1.42;;;23.60;71.00;;;;;;4938136;29;20047;-81
2021/07/09 09:52:09;;;;;;;1.52;1.35;;;23.70;71.00;;;;;;4976166;28;20129;-81
2021/07/09 09:54:35;;;;;;;2.05;1.42;;;23.60;71.30;;;;;;5012523;28;20045;-80
2021/07/09 09:57:01;;;;;;;2.08;1.70;;;23.70;71.00;;;;;;5059759;28;20041;-80
2021/07/09 09:59:28;;;;;;;2.45;1.77;;;23.70;70.80;;;;;;5058739;28;20045;-80
2021/07/09 10:01:57;;;;;;;2.38;1.83;;;23.80;70.80;;;;;;5072723;28;20485;-81
2021/07/09 10:04:25;;;;;;;2.60;1.90;;;23.80;70.60;;;;;;5097003;28;20036;-81
2021/07/09 10:06:52;;;;;;;3.45;2.17;;;23.90;70.60;;;;;;5100380;28;20039;-79
2021/07/09 10:09:19;;;;;;;2.17;1.75;;;23.90;70.20;;;;;;5121477;28;20180;-79
2021/07/09 10:11:46;;;;;;;4.18;2.42;;;23.90;70.20;;;;;;5116947;28;20058;-80
2021/07/09 10:14:15;;;;;;;2.70;1.80;;;24.00;70.20;;;;;;5080185;28;20039;-80
2021/07/09 10:16:43;;;;;;;2.83;1.75;;;24.00;70.00;;;;;;5096689;28;20433;-83
2021/07/09 10:19:11;;;;;;;3.05;1.80;;;24.10;70.00;;;;;;5062977;28;20081;-83
2021/07/09 10:21:39;;;;;;;1.88;1.60;;;24.00;70.00;;;;;;5080306;28;20466;-83
2021/07/09 10:24:13;;;;;;;2.25;1.83;;;23.80;70.20;;;;;;5077954;28;20442;-83
2021/07/09 10:26:47;;;;;;;2.35;1.80;;;23.60;71.00;;;;;;5095974;28;20059;-84
2021/07/09 10:29:16;;;;;;;2.35;1.90;;;23.50;71.20;;;;;;5033471;28;20041;-83
2021/07/09 10:31:44;;;;;;;2.05;1.60;;;23.40;71.40;;;;;;5034685;28;20060;-83
2021/07/09 10:34:36;;;;;;;1.65;1.50;;;23.30;71.70;;;;;;5034847;28;20167;-84
2021/07/09 10:37:16;;;;;;;2.33;2.00;;;23.10;71.90;;;;;;5036878;28;20044;-84
2021/07/09 10:39:48;;;;;;;2.13;1.83;;;23.00;72.10;;;;;;5023688;28;20061;-84
2021/07/09 10:42:27;;;;;;;2.20;1.83;;;22.90;72.40;;;;;;5021003;28;20102;-84
2021/07/09 10:45:26;;;;;;;3.08;2.33;;;23.00;72.30;;;;;;5053708;28;20143;-85
2021/07/09 10:56:05;;;;;;;2.15;1.80;;;23.10;71.30;;;;;;4858283;29;20456;-84
2021/07/09 10:58:40;;;;;;;1.85;1.60;;;23.00;71.40;;;;;;4840693;29;20046;-83
2021/07/09 11:01:31;;;;;;;1.67;1.58;;;22.90;71.50;;;;;;4849901;29;20428;-83
2021/07/09 11:04:14;;;;;;;1.90;1.70;;;22.80;71.60;;;;;;4872674;29;20045;-83
2021/07/09 11:06:42;;;;;;;2.38;1.70;;;22.70;71.80;;;;;;4854098;29;20042;-81
2021/07/09 11:09:09;;;;;;;2.03;1.73;;;22.60;72.00;;;;;;4852591;29;20037;-82
2021/07/09 11:11:50;;;;;;;2.08;1.50;;;22.60;72.10;;;;;;4842146;29;20115;-82
2021/07/09 11:14:20;;;;;;;2.50;1.77;;;22.60;72.00;;;;;;4915895;29;20052;-84
2021/07/09 11:16:50;;;;;;;2.47;1.70;;;22.60;72.00;;;;;;4914574;29;20043;-81
2021/07/09 11:19:27;;;;;;;2.55;1.50;;;22.80;71.50;;;;;;4906792;29;20040;-81
2021/07/09 11:21:55;;;;;;;2.40;1.77;;;23.10;71.00;;;;;;4902514;29;20271;-81
2021/07/09 11:24:25;;;;;;;2.90;1.77;;;23.40;70.30;;;;;;4901692;29;20055;-82
2021/07/09 11:26:54;;;;;;;3.47;1.85;;;23.50;69.60;;;;;;4991943;28;20132;-82
2021/07/09 11:29:36;;;;;;;2.88;1.70;;;23.60;69.10;;;;;;5020808;28;20041;-83
2021/07/09 11:32:07;;;;;;;3.08;1.90;;;23.40;69.20;;;;;;5109073;28;20114;-81
2021/07/09 11:34:37;;;;;;;3.17;2.10;;;23.40;69.60;;;;;;5101837;28;20067;-79
2021/07/09 11:37:10;;;;;;;3.17;2.22;;;23.50;69.30;;;;;;5104476;28;20036;-80
2021/07/09 11:39:40;;;;;;;2.75;2.10;;;23.60;68.90;;;;;;5085344;28;20036;-82
2021/07/09 11:42:08;;;;;;;3.55;2.38;;;23.70;68.60;;;;;;5099079;28;20553;-81
2021/07/09 11:44:38;;;;;;;2.17;1.77;;;23.70;68.50;;;;;;5071448;28;20040;-82
2021/07/09 11:47:07;;;;;;;2.22;1.70;;;23.70;68.40;;;;;;5083593;28;20497;-82
2021/07/09 11:49:39;;;;;;;2.63;2.00;;;23.90;68.20;;;;;;5031152;28;20072;-81
2021/07/09 11:52:10;;;;;;;2.25;1.60;;;23.90;68.10;;;;;;5030096;28;20144;-80
2021/07/09 11:54:38;;;;;;;2.40;1.85;;;23.90;68.00;;;;;;5032916;28;20052;-80
2021/07/09 11:57:09;;;;;;;2.03;1.60;;;24.00;67.90;;;;;;5018810;28;20057;-80
2021/07/09 12:03:24;;;;;;;2.20;1.60;;;24.00;67.80;;;;;;4908115;29;20040;-84
2021/07/09 12:05:49;;;;;;;1.98;1.45;;;24.10;67.40;;;;;;4904308;29;20459;-81
2021/07/09 12:08:15;;;;;;;2.10;1.50;;;24.10;67.20;;;;;;4904132;29;20083;-82
2021/07/09 12:10:42;;;;;;;1.50;1.30;;;24.10;67.00;;;;;;4902246;29;20143;-81
2021/07/09 12:13:08;;;;;;;1.50;1.40;;;24.00;67.00;;;;;;4894057;29;20048;-81
2021/07/09 12:15:39;;;;;;;1.45;1.20;;;24.00;67.00;;;;;;4885716;29;20044;-81
2021/07/09 12:18:31;;;;;;;1.88;1.52;;;24.00;67.10;;;;;;4886552;29;20058;-82
2021/07/09 12:29:00;;;;;;;1.42;1.33;;;24.10;66.80;;;;;;4885184;29;20135;-82
2021/07/09 12:34:22;;;;;;;1.80;1.42;;;24.10;66.60;;;;;;4835314;29;20088;-81
2021/07/09 12:37:27;;;;;;;2.58;1.60;;;24.30;66.50;;;;;;4840636;29;20045;-82
2021/07/09 12:39:53;;;;;;;2.30;1.63;;;24.30;66.30;;;;;;4820546;29;20050;-82
2021/07/09 12:42:54;;;;;;;1.80;1.50;;;24.30;66.40;;;;;;4777261;29;20061;-82
2021/07/09 12:45:37;;;;;;;1.67;1.40;;;24.20;66.60;;;;;;4803015;29;20057;-81
2021/07/09 12:48:03;;;;;;;2.00;1.30;;;24.30;66.40;;;;;;4786743;30;20059;-78
2021/07/09 12:50:33;;;;;;;2.17;1.60;;;24.30;66.40;;;;;;4786862;29;20039;-77
2021/07/09 12:53:17;;;;;;;2.33;1.60;;;24.40;66.40;;;;;;4757814;30;20039;-80
2021/07/09 12:55:43;;;;;;;2.03;1.50;;;24.40;66.00;;;;;;4756847;30;20455;-81
2021/07/09 12:58:17;;;;;;;3.17;1.90;;;24.30;65.90;;;;;;4778436;29;20466;-78
2021/07/09 13:00:55;;;;;;;1.65;1.33;;;24.30;66.00;;;;;;4789588;29;20058;-83
2021/07/09 13:03:26;;;;;;;2.30;1.65;;;24.10;66.10;;;;;;4841246;29;20077;-81
2021/07/09 13:06:09;;;;;;;2.58;1.65;;;24.00;66.40;;;;;;4899253;29;20045;-80
2021/07/09 13:08:36;;;;;;;1.75;1.48;;;24.10;66.30;;;;;;4955539;28;20086;-78
2021/07/09 13:11:16;;;;;;;3.65;1.80;;;24.20;66.20;;;;;;4987779;28;20041;-78
2021/07/09 13:13:52;;;;;;;2.13;1.60;;;24.20;66.10;;;;;;5034213;28;20080;-78
2021/07/09 13:16:20;;;;;;;1.88;1.50;;;24.30;66.00;;;;;;5046953;28;20051;-79